sensor_id;sensor_type;location;lat;lon;timestamp;P1;durP1;ratioP1;P2;durP2;ratioP2
6135;SDS011;24008;42.664;23.372;2022-08-19T00:00:15;9.98;;;8.98;;
6135;SDS011;24008;42.664;23.372;2022-08-19T00:02:44;10.70;;;9.52;;
6135;SDS011;24008;42.664;23.372;2022-08-19T00:05:12;12.50;;;9.65;;
6135;SDS011;24008;42.664;23.372;2022-08-19T00:07:40;11.57;;;9.82;;
6135;SDS011;24008;42.664;23.372;2022-08-19T00:10:10;12.35;;;9.48;;
6135;SDS011;24008;42.664;23.372;2022-08-19T00:12:39;10.57;;;9.38;;
6135;SDS011;24008;42.664;23.372;2022-08-19T00:15:07;10.98;;;9.20;;
6135;SDS011;24008;42.664;23.372;2022-08-19T00:17:37;12.90;;;9.73;;
6135;SDS011;24008;42.664;23.372;2022-08-19T00:20:05;10.60;;;9.50;;
6135;SDS011;24008;42.664;23.372;2022-08-19T00:22:35;12.38;;;9.30;;
6135;SDS011;24008;42.664;23.372;2022-08-19T00:25:03;13.52;;;10.15;;
6135;SDS011;24008;42.664;23.372;2022-08-19T00:27:32;12.20;;;9.40;;
6135;SDS011;24008;42.664;23.372;2022-08-19T00:29:58;10.77;;;9.68;;
6135;SDS011;24008;42.664;23.372;2022-08-19T00:32:27;13.32;;;10.18;;
6135;SDS011;24008;42.664;23.372;2022-08-19T00:34:53;13.52;;;9.60;;
6135;SDS011;24008;42.664;23.372;2022-08-19T00:37:21;12.48;;;10.20;;
6135;SDS011;24008;42.664;23.372;2022-08-19T00:39:48;10.15;;;9.05;;
6135;SDS011;24008;42.664;23.372;2022-08-19T00:42:16;12.60;;;10.05;;
6135;SDS011;24008;42.664;23.372;2022-08-19T00:44:44;11.25;;;9.88;;
6135;SDS011;24008;42.664;23.372;2022-08-19T00:47:12;11.93;;;10.23;;
6135;SDS011;24008;42.664;23.372;2022-08-19T00:49:40;13.45;;;9.68;;
6135;SDS011;24008;42.664;23.372;2022-08-19T00:52:16;10.77;;;9.68;;
6135;SDS011;24008;42.664;23.372;2022-08-19T00:54:47;12.02;;;10.73;;
6135;SDS011;24008;42.664;23.372;2022-08-19T00:57:15;11.48;;;10.15;;
6135;SDS011;24008;42.664;23.372;2022-08-19T00:59:47;12.85;;;10.30;;
6135;SDS011;24008;42.664;23.372;2022-08-19T01:02:18;14.15;;;10.18;;
6135;SDS011;24008;42.664;23.372;2022-08-19T01:04:45;12.80;;;10.38;;
6135;SDS011;24008;42.664;23.372;2022-08-19T01:07:12;12.18;;;10.00;;
6135;SDS011;24008;42.664;23.372;2022-08-19T01:09:39;15.35;;;10.02;;
6135;SDS011;24008;42.664;23.372;2022-08-19T01:12:06;11.07;;;9.90;;
6135;SDS011;24008;42.664;23.372;2022-08-19T01:14:34;11.73;;;9.68;;
6135;SDS011;24008;42.664;23.372;2022-08-19T01:17:04;12.83;;;10.43;;
6135;SDS011;24008;42.664;23.372;2022-08-19T01:19:33;13.07;;;10.10;;
6135;SDS011;24008;42.664;23.372;2022-08-19T01:22:06;14.73;;;10.37;;
6135;SDS011;24008;42.664;23.372;2022-08-19T01:24:40;11.90;;;10.20;;
6135;SDS011;24008;42.664;23.372;2022-08-19T01:27:07;17.10;;;11.43;;
6135;SDS011;24008;42.664;23.372;2022-08-19T01:29:36;13.67;;;10.20;;
6135;SDS011;24008;42.664;23.372;2022-08-19T01:32:04;13.57;;;10.20;;
6135;SDS011;24008;42.664;23.372;2022-08-19T01:34:32;12.83;;;11.00;;
6135;SDS011;24008;42.664;23.372;2022-08-19T01:36:59;18.60;;;11.02;;
6135;SDS011;24008;42.664;23.372;2022-08-19T01:39:33;14.97;;;10.80;;
6135;SDS011;24008;42.664;23.372;2022-08-19T01:42:01;12.77;;;10.90;;
6135;SDS011;24008;42.664;23.372;2022-08-19T01:44:29;14.03;;;10.37;;
6135;SDS011;24008;42.664;23.372;2022-08-19T01:46:56;14.43;;;10.40;;
6135;SDS011;24008;42.664;23.372;2022-08-19T01:49:23;11.23;;;9.90;;
6135;SDS011;24008;42.664;23.372;2022-08-19T01:51:52;14.63;;;9.77;;
6135;SDS011;24008;42.664;23.372;2022-08-19T01:54:20;15.50;;;10.40;;
6135;SDS011;24008;42.664;23.372;2022-08-19T01:56:48;13.80;;;9.90;;
6135;SDS011;24008;42.664;23.372;2022-08-19T01:59:19;16.87;;;10.23;;
6135;SDS011;24008;42.664;23.372;2022-08-19T02:01:48;13.00;;;10.47;;
6135;SDS011;24008;42.664;23.372;2022-08-19T02:04:15;13.17;;;10.40;;
6135;SDS011;24008;42.664;23.372;2022-08-19T02:06:42;10.83;;;9.73;;
6135;SDS011;24008;42.664;23.372;2022-08-19T02:09:09;11.43;;;10.30;;
6135;SDS011;24008;42.664;23.372;2022-08-19T02:11:36;12.77;;;10.47;;
6135;SDS011;24008;42.664;23.372;2022-08-19T02:14:05;13.07;;;10.53;;
6135;SDS011;24008;42.664;23.372;2022-08-19T02:16:35;11.07;;;9.87;;
6135;SDS011;24008;42.664;23.372;2022-08-19T02:19:03;14.73;;;10.47;;
6135;SDS011;24008;42.664;23.372;2022-08-19T02:21:30;13.37;;;10.77;;
6135;SDS011;24008;42.664;23.372;2022-08-19T02:23:58;12.77;;;10.77;;
6135;SDS011;24008;42.664;23.372;2022-08-19T02:26:24;12.50;;;10.57;;
6135;SDS011;24008;42.664;23.372;2022-08-19T02:28:52;12.63;;;10.33;;
6135;SDS011;24008;42.664;23.372;2022-08-19T02:31:21;14.07;;;11.00;;
6135;SDS011;24008;42.664;23.372;2022-08-19T02:33:51;12.43;;;10.47;;
6135;SDS011;24008;42.664;23.372;2022-08-19T02:36:18;12.97;;;11.00;;
6135;SDS011;24008;42.664;23.372;2022-08-19T02:38:47;11.77;;;10.53;;
6135;SDS011;24008;42.664;23.372;2022-08-19T02:41:14;14.97;;;11.57;;
6135;SDS011;24008;42.664;23.372;2022-08-19T02:43:43;15.27;;;11.37;;
6135;SDS011;24008;42.664;23.372;2022-08-19T02:46:11;16.73;;;11.70;;
6135;SDS011;24008;42.664;23.372;2022-08-19T02:48:40;16.83;;;12.00;;
6135;SDS011;24008;42.664;23.372;2022-08-19T02:51:09;14.23;;;11.50;;
6135;SDS011;24008;42.664;23.372;2022-08-19T02:53:42;13.47;;;10.80;;
6135;SDS011;24008;42.664;23.372;2022-08-19T02:56:09;14.17;;;11.17;;
6135;SDS011;24008;42.664;23.372;2022-08-19T02:58:36;15.87;;;11.80;;
6135;SDS011;24008;42.664;23.372;2022-08-19T03:01:03;17.30;;;11.20;;
6135;SDS011;24008;42.664;23.372;2022-08-19T03:03:30;14.57;;;10.73;;
6135;SDS011;24008;42.664;23.372;2022-08-19T03:06:06;13.43;;;11.03;;
6135;SDS011;24008;42.664;23.372;2022-08-19T03:08:36;12.80;;;11.17;;
6135;SDS011;24008;42.664;23.372;2022-08-19T03:11:04;15.63;;;11.53;;
6135;SDS011;24008;42.664;23.372;2022-08-19T03:13:31;13.63;;;10.93;;
6135;SDS011;24008;42.664;23.372;2022-08-19T03:15:58;14.30;;;12.13;;
6135;SDS011;24008;42.664;23.372;2022-08-19T03:18:25;14.97;;;12.00;;
6135;SDS011;24008;42.664;23.372;2022-08-19T03:20:52;14.63;;;11.13;;
6135;SDS011;24008;42.664;23.372;2022-08-19T03:23:19;13.97;;;11.00;;
6135;SDS011;24008;42.664;23.372;2022-08-19T03:25:49;14.73;;;11.53;;
6135;SDS011;24008;42.664;23.372;2022-08-19T03:28:18;14.03;;;10.10;;
6135;SDS011;24008;42.664;23.372;2022-08-19T03:30:54;12.03;;;10.83;;
6135;SDS011;24008;42.664;23.372;2022-08-19T03:33:23;12.13;;;10.60;;
6135;SDS011;24008;42.664;23.372;2022-08-19T03:36:04;15.83;;;11.57;;
6135;SDS011;24008;42.664;23.372;2022-08-19T03:38:33;14.50;;;11.53;;
6135;SDS011;24008;42.664;23.372;2022-08-19T03:41:06;12.90;;;11.30;;
6135;SDS011;24008;42.664;23.372;2022-08-19T03:43:35;12.30;;;10.67;;
6135;SDS011;24008;42.664;23.372;2022-08-19T03:46:04;15.83;;;12.20;;
6135;SDS011;24008;42.664;23.372;2022-08-19T03:48:40;13.87;;;11.33;;
6135;SDS011;24008;42.664;23.372;2022-08-19T03:51:14;16.27;;;13.43;;
6135;SDS011;24008;42.664;23.372;2022-08-19T03:53:42;16.50;;;12.13;;
6135;SDS011;24008;42.664;23.372;2022-08-19T03:56:11;14.77;;;12.70;;
6135;SDS011;24008;42.664;23.372;2022-08-19T03:58:38;16.70;;;14.30;;
6135;SDS011;24008;42.664;23.372;2022-08-19T04:01:07;20.77;;;14.50;;
6135;SDS011;24008;42.664;23.372;2022-08-19T04:03:34;21.03;;;14.87;;
6135;SDS011;24008;42.664;23.372;2022-08-19T04:06:08;17.73;;;14.97;;
6135;SDS011;24008;42.664;23.372;2022-08-19T04:08:38;19.93;;;15.27;;
6135;SDS011;24008;42.664;23.372;2022-08-19T04:11:06;18.60;;;13.50;;
6135;SDS011;24008;42.664;23.372;2022-08-19T04:13:35;17.27;;;12.57;;
6135;SDS011;24008;42.664;23.372;2022-08-19T04:16:03;21.30;;;13.30;;
6135;SDS011;24008;42.664;23.372;2022-08-19T04:18:30;18.77;;;13.40;;
6135;SDS011;24008;42.664;23.372;2022-08-19T04:20:58;14.90;;;12.67;;
6135;SDS011;24008;42.664;23.372;2022-08-19T04:23:26;15.27;;;13.00;;
6135;SDS011;24008;42.664;23.372;2022-08-19T04:25:53;17.03;;;13.07;;
6135;SDS011;24008;42.664;23.372;2022-08-19T04:28:20;17.17;;;12.70;;
6135;SDS011;24008;42.664;23.372;2022-08-19T04:30:50;19.50;;;12.77;;
6135;SDS011;24008;42.664;23.372;2022-08-19T04:33:21;15.77;;;12.40;;
6135;SDS011;24008;42.664;23.372;2022-08-19T04:35:50;17.53;;;13.70;;
6135;SDS011;24008;42.664;23.372;2022-08-19T04:38:19;14.43;;;12.33;;
6135;SDS011;24008;42.664;23.372;2022-08-19T04:40:48;16.47;;;12.80;;
6135;SDS011;24008;42.664;23.372;2022-08-19T04:43:34;20.57;;;13.87;;
6135;SDS011;24008;42.664;23.372;2022-08-19T04:46:05;18.50;;;12.43;;
6135;SDS011;24008;42.664;23.372;2022-08-19T04:48:33;17.10;;;10.90;;
6135;SDS011;24008;42.664;23.372;2022-08-19T04:51:00;11.90;;;9.77;;
6135;SDS011;24008;42.664;23.372;2022-08-19T04:53:28;15.23;;;10.50;;
6135;SDS011;24008;42.664;23.372;2022-08-19T04:55:57;12.00;;;9.50;;
6135;SDS011;24008;42.664;23.372;2022-08-19T04:58:26;9.68;;;8.68;;
6135;SDS011;24008;42.664;23.372;2022-08-19T05:00:54;10.60;;;9.52;;
6135;SDS011;24008;42.664;23.372;2022-08-19T05:03:22;9.85;;;8.85;;
6135;SDS011;24008;42.664;23.372;2022-08-19T05:05:49;12.35;;;8.70;;
6135;SDS011;24008;42.664;23.372;2022-08-19T05:08:17;11.70;;;9.23;;
6135;SDS011;24008;42.664;23.372;2022-08-19T05:10:46;11.48;;;8.75;;
6135;SDS011;24008;42.664;23.372;2022-08-19T05:13:13;12.35;;;9.40;;
6135;SDS011;24008;42.664;23.372;2022-08-19T05:15:53;10.68;;;8.90;;
6135;SDS011;24008;42.664;23.372;2022-08-19T05:18:22;9.95;;;8.57;;
6135;SDS011;24008;42.664;23.372;2022-08-19T05:21:08;11.32;;;9.27;;
6135;SDS011;24008;42.664;23.372;2022-08-19T05:23:53;15.02;;;9.50;;
6135;SDS011;24008;42.664;23.372;2022-08-19T05:26:20;11.32;;;9.15;;
6135;SDS011;24008;42.664;23.372;2022-08-19T05:28:47;10.95;;;9.35;;
6135;SDS011;24008;42.664;23.372;2022-08-19T05:31:23;10.82;;;9.07;;
6135;SDS011;24008;42.664;23.372;2022-08-19T05:33:57;10.88;;;9.77;;
6135;SDS011;24008;42.664;23.372;2022-08-19T05:36:28;12.57;;;9.90;;
6135;SDS011;24008;42.664;23.372;2022-08-19T05:39:00;13.82;;;10.23;;
6135;SDS011;24008;42.664;23.372;2022-08-19T05:41:27;13.43;;;10.10;;
6135;SDS011;24008;42.664;23.372;2022-08-19T05:43:55;14.48;;;9.85;;
6135;SDS011;24008;42.664;23.372;2022-08-19T05:46:23;12.15;;;9.75;;
6135;SDS011;24008;42.664;23.372;2022-08-19T05:49:08;12.27;;;10.10;;
6135;SDS011;24008;42.664;23.372;2022-08-19T05:51:35;12.82;;;9.88;;
6135;SDS011;24008;42.664;23.372;2022-08-19T05:54:03;12.43;;;9.57;;
6135;SDS011;24008;42.664;23.372;2022-08-19T05:56:33;13.13;;;9.65;;
6135;SDS011;24008;42.664;23.372;2022-08-19T05:59:03;13.80;;;10.13;;
6135;SDS011;24008;42.664;23.372;2022-08-19T06:01:35;14.65;;;10.13;;
6135;SDS011;24008;42.664;23.372;2022-08-19T06:04:03;14.77;;;10.65;;
6135;SDS011;24008;42.664;23.372;2022-08-19T06:06:32;13.80;;;11.00;;
6135;SDS011;24008;42.664;23.372;2022-08-19T06:08:59;14.13;;;10.07;;
6135;SDS011;24008;42.664;23.372;2022-08-19T06:11:31;13.95;;;10.23;;
6135;SDS011;24008;42.664;23.372;2022-08-19T06:14:01;18.55;;;12.30;;
6135;SDS011;24008;42.664;23.372;2022-08-19T06:16:29;16.58;;;10.35;;
6135;SDS011;24008;42.664;23.372;2022-08-19T06:19:00;14.13;;;10.25;;
6135;SDS011;24008;42.664;23.372;2022-08-19T06:21:29;23.90;;;12.52;;
6135;SDS011;24008;42.664;23.372;2022-08-19T06:23:58;15.68;;;10.73;;
6135;SDS011;24008;42.664;23.372;2022-08-19T06:26:26;20.40;;;10.93;;
6135;SDS011;24008;42.664;23.372;2022-08-19T06:28:53;16.48;;;11.05;;
6135;SDS011;24008;42.664;23.372;2022-08-19T06:31:24;15.50;;;10.25;;
6135;SDS011;24008;42.664;23.372;2022-08-19T06:33:53;13.80;;;10.25;;
6135;SDS011;24008;42.664;23.372;2022-08-19T06:36:20;18.33;;;10.82;;
6135;SDS011;24008;42.664;23.372;2022-08-19T06:38:52;24.63;;;11.55;;
6135;SDS011;24008;42.664;23.372;2022-08-19T06:41:20;20.70;;;10.40;;
6135;SDS011;24008;42.664;23.372;2022-08-19T06:43:47;24.02;;;10.40;;
6135;SDS011;24008;42.664;23.372;2022-08-19T06:46:15;27.17;;;11.32;;
6135;SDS011;24008;42.664;23.372;2022-08-19T06:48:43;34.60;;;11.57;;
6135;SDS011;24008;42.664;23.372;2022-08-19T06:51:10;16.92;;;11.23;;
6135;SDS011;24008;42.664;23.372;2022-08-19T06:53:40;19.45;;;9.98;;
6135;SDS011;24008;42.664;23.372;2022-08-19T06:56:12;16.40;;;9.90;;
6135;SDS011;24008;42.664;23.372;2022-08-19T06:58:41;15.50;;;10.48;;
6135;SDS011;24008;42.664;23.372;2022-08-19T07:01:08;13.52;;;9.95;;
6135;SDS011;24008;42.664;23.372;2022-08-19T07:03:36;30.65;;;11.07;;
6135;SDS011;24008;42.664;23.372;2022-08-19T07:06:04;17.13;;;10.65;;
6135;SDS011;24008;42.664;23.372;2022-08-19T07:08:33;41.78;;;12.85;;
6135;SDS011;24008;42.664;23.372;2022-08-19T07:11:01;20.88;;;10.15;;
6135;SDS011;24008;42.664;23.372;2022-08-19T07:13:29;17.83;;;10.07;;
6135;SDS011;24008;42.664;23.372;2022-08-19T07:16:04;72.53;;;18.48;;
6135;SDS011;24008;42.664;23.372;2022-08-19T07:18:31;36.85;;;16.92;;
6135;SDS011;24008;42.664;23.372;2022-08-19T07:21:02;17.35;;;9.93;;
6135;SDS011;24008;42.664;23.372;2022-08-19T07:23:30;16.65;;;10.07;;
6135;SDS011;24008;42.664;23.372;2022-08-19T07:25:57;17.67;;;10.35;;
6135;SDS011;24008;42.664;23.372;2022-08-19T07:28:24;20.92;;;9.30;;
6135;SDS011;24008;42.664;23.372;2022-08-19T07:30:51;19.23;;;9.13;;
6135;SDS011;24008;42.664;23.372;2022-08-19T07:33:19;23.95;;;10.20;;
6135;SDS011;24008;42.664;23.372;2022-08-19T07:35:46;18.30;;;9.80;;
6135;SDS011;24008;42.664;23.372;2022-08-19T07:38:13;20.40;;;9.95;;
6135;SDS011;24008;42.664;23.372;2022-08-19T07:40:41;21.67;;;10.73;;
6135;SDS011;24008;42.664;23.372;2022-08-19T07:43:10;19.00;;;10.45;;
6135;SDS011;24008;42.664;23.372;2022-08-19T07:45:38;20.17;;;10.18;;
6135;SDS011;24008;42.664;23.372;2022-08-19T07:48:04;20.15;;;9.63;;
6135;SDS011;24008;42.664;23.372;2022-08-19T07:50:33;17.52;;;9.13;;
6135;SDS011;24008;42.664;23.372;2022-08-19T07:53:00;22.80;;;9.88;;
6135;SDS011;24008;42.664;23.372;2022-08-19T07:55:26;16.92;;;9.45;;
6135;SDS011;24008;42.664;23.372;2022-08-19T07:57:53;17.23;;;9.23;;
6135;SDS011;24008;42.664;23.372;2022-08-19T08:00:20;15.50;;;9.23;;
6135;SDS011;24008;42.664;23.372;2022-08-19T08:02:47;42.22;;;11.82;;
6135;SDS011;24008;42.664;23.372;2022-08-19T08:05:14;46.08;;;11.75;;
6135;SDS011;24008;42.664;23.372;2022-08-19T08:08:00;18.83;;;9.50;;
6135;SDS011;24008;42.664;23.372;2022-08-19T08:10:44;15.38;;;9.88;;
6135;SDS011;24008;42.664;23.372;2022-08-19T08:13:11;17.20;;;9.82;;
6135;SDS011;24008;42.664;23.372;2022-08-19T08:15:38;17.83;;;9.40;;
6135;SDS011;24008;42.664;23.372;2022-08-19T08:18:05;17.02;;;10.55;;
6135;SDS011;24008;42.664;23.372;2022-08-19T08:20:32;13.32;;;8.70;;
6135;SDS011;24008;42.664;23.372;2022-08-19T08:23:01;17.27;;;9.07;;
6135;SDS011;24008;42.664;23.372;2022-08-19T08:25:45;18.23;;;8.80;;
6135;SDS011;24008;42.664;23.372;2022-08-19T08:28:13;16.38;;;8.93;;
6135;SDS011;24008;42.664;23.372;2022-08-19T08:30:41;17.65;;;9.40;;
6135;SDS011;24008;42.664;23.372;2022-08-19T08:33:09;12.88;;;8.40;;
6135;SDS011;24008;42.664;23.372;2022-08-19T08:35:36;11.93;;;8.77;;
6135;SDS011;24008;42.664;23.372;2022-08-19T08:38:05;20.98;;;8.82;;
6135;SDS011;24008;42.664;23.372;2022-08-19T08:40:33;18.70;;;8.45;;
6135;SDS011;24008;42.664;23.372;2022-08-19T08:43:09;14.93;;;8.77;;
6135;SDS011;24008;42.664;23.372;2022-08-19T08:45:47;61.05;;;17.50;;
6135;SDS011;24008;42.664;23.372;2022-08-19T08:48:20;15.57;;;8.35;;
6135;SDS011;24008;42.664;23.372;2022-08-19T08:50:50;73.50;;;15.20;;
6135;SDS011;24008;42.664;23.372;2022-08-19T08:53:22;11.18;;;8.48;;
6135;SDS011;24008;42.664;23.372;2022-08-19T08:55:51;15.23;;;8.40;;
6135;SDS011;24008;42.664;23.372;2022-08-19T08:58:21;11.85;;;8.30;;
6135;SDS011;24008;42.664;23.372;2022-08-19T09:00:54;32.60;;;8.27;;
6135;SDS011;24008;42.664;23.372;2022-08-19T09:03:22;13.75;;;7.85;;
6135;SDS011;24008;42.664;23.372;2022-08-19T09:05:54;9.02;;;7.72;;
6135;SDS011;24008;42.664;23.372;2022-08-19T09:08:30;12.02;;;7.57;;
6135;SDS011;24008;42.664;23.372;2022-08-19T09:11:06;9.95;;;7.55;;
6135;SDS011;24008;42.664;23.372;2022-08-19T09:13:42;8.15;;;6.85;;
6135;SDS011;24008;42.664;23.372;2022-08-19T09:16:18;11.73;;;8.05;;
6135;SDS011;24008;42.664;23.372;2022-08-19T09:18:49;12.50;;;7.63;;
6135;SDS011;24008;42.664;23.372;2022-08-19T09:21:18;7.28;;;5.97;;
6135;SDS011;24008;42.664;23.372;2022-08-19T09:23:49;9.02;;;6.32;;
6135;SDS011;24008;42.664;23.372;2022-08-19T09:26:16;6.65;;;6.03;;
6135;SDS011;24008;42.664;23.372;2022-08-19T09:28:46;6.72;;;6.13;;
6135;SDS011;24008;42.664;23.372;2022-08-19T09:31:15;6.70;;;5.85;;
6135;SDS011;24008;42.664;23.372;2022-08-19T09:33:43;6.55;;;5.38;;
6135;SDS011;24008;42.664;23.372;2022-08-19T09:36:13;6.03;;;5.43;;
6135;SDS011;24008;42.664;23.372;2022-08-19T09:38:41;5.75;;;4.22;;
6135;SDS011;24008;42.664;23.372;2022-08-19T09:41:12;5.57;;;4.43;;
6135;SDS011;24008;42.664;23.372;2022-08-19T09:43:41;7.07;;;4.43;;
6135;SDS011;24008;42.664;23.372;2022-08-19T09:46:10;5.72;;;4.47;;
6135;SDS011;24008;42.664;23.372;2022-08-19T09:48:38;5.53;;;4.60;;
6135;SDS011;24008;42.664;23.372;2022-08-19T09:51:09;4.75;;;3.97;;
6135;SDS011;24008;42.664;23.372;2022-08-19T09:53:41;5.28;;;3.63;;
6135;SDS011;24008;42.664;23.372;2022-08-19T09:56:09;8.27;;;4.50;;
6135;SDS011;24008;42.664;23.372;2022-08-19T09:58:39;5.65;;;4.63;;
6135;SDS011;24008;42.664;23.372;2022-08-19T10:01:06;8.13;;;7.07;;
6135;SDS011;24008;42.664;23.372;2022-08-19T10:03:34;5.80;;;4.35;;
6135;SDS011;24008;42.664;23.372;2022-08-19T10:06:03;5.35;;;4.50;;
6135;SDS011;24008;42.664;23.372;2022-08-19T10:08:33;7.97;;;4.20;;
6135;SDS011;24008;42.664;23.372;2022-08-19T10:11:02;5.18;;;4.68;;
6135;SDS011;24008;42.664;23.372;2022-08-19T10:13:32;6.20;;;4.85;;
6135;SDS011;24008;42.664;23.372;2022-08-19T10:16:02;5.70;;;4.97;;
6135;SDS011;24008;42.664;23.372;2022-08-19T10:18:31;5.60;;;5.10;;
6135;SDS011;24008;42.664;23.372;2022-08-19T10:21:03;6.43;;;4.80;;
6135;SDS011;24008;42.664;23.372;2022-08-19T10:23:33;8.18;;;5.00;;
6135;SDS011;24008;42.664;23.372;2022-08-19T10:26:02;7.43;;;5.45;;
6135;SDS011;24008;42.664;23.372;2022-08-19T10:28:33;6.60;;;4.97;;
6135;SDS011;24008;42.664;23.372;2022-08-19T10:31:06;8.88;;;4.85;;
6135;SDS011;24008;42.664;23.372;2022-08-19T10:33:33;5.90;;;5.35;;
6135;SDS011;24008;42.664;23.372;2022-08-19T10:36:01;6.80;;;5.22;;
6135;SDS011;24008;42.664;23.372;2022-08-19T10:38:29;7.03;;;5.15;;
6135;SDS011;24008;42.664;23.372;2022-08-19T10:40:56;8.32;;;5.35;;
6135;SDS011;24008;42.664;23.372;2022-08-19T10:43:23;8.27;;;5.90;;
6135;SDS011;24008;42.664;23.372;2022-08-19T10:45:55;6.25;;;5.65;;
6135;SDS011;24008;42.664;23.372;2022-08-19T10:48:24;10.05;;;6.13;;
6135;SDS011;24008;42.664;23.372;2022-08-19T10:50:51;7.63;;;5.82;;
6135;SDS011;24008;42.664;23.372;2022-08-19T10:53:35;7.38;;;5.78;;
6135;SDS011;24008;42.664;23.372;2022-08-19T10:56:02;8.63;;;5.65;;
6135;SDS011;24008;42.664;23.372;2022-08-19T10:58:47;13.95;;;5.70;;
6135;SDS011;24008;42.664;23.372;2022-08-19T11:01:15;26.58;;;7.30;;
6135;SDS011;24008;42.664;23.372;2022-08-19T11:03:42;6.47;;;5.30;;
6135;SDS011;24008;42.664;23.372;2022-08-19T11:06:10;7.68;;;5.70;;
6135;SDS011;24008;42.664;23.372;2022-08-19T11:08:37;36.67;;;7.80;;
6135;SDS011;24008;42.664;23.372;2022-08-19T11:11:05;83.45;;;12.02;;
6135;SDS011;24008;42.664;23.372;2022-08-19T11:13:34;27.38;;;7.55;;
6135;SDS011;24008;42.664;23.372;2022-08-19T11:16:03;14.77;;;6.45;;
6135;SDS011;24008;42.664;23.372;2022-08-19T11:18:34;12.68;;;6.45;;
6135;SDS011;24008;42.664;23.372;2022-08-19T11:21:06;7.63;;;5.72;;
6135;SDS011;24008;42.664;23.372;2022-08-19T11:23:38;7.90;;;6.50;;
6135;SDS011;24008;42.664;23.372;2022-08-19T11:26:05;10.57;;;6.15;;
6135;SDS011;24008;42.664;23.372;2022-08-19T11:28:32;10.30;;;6.18;;
6135;SDS011;24008;42.664;23.372;2022-08-19T11:30:59;9.27;;;7.65;;
6135;SDS011;24008;42.664;23.372;2022-08-19T11:33:28;13.45;;;9.02;;
6135;SDS011;24008;42.664;23.372;2022-08-19T11:35:58;8.93;;;6.20;;
6135;SDS011;24008;42.664;23.372;2022-08-19T11:38:26;7.72;;;6.20;;
6135;SDS011;24008;42.664;23.372;2022-08-19T11:40:56;9.85;;;6.35;;
6135;SDS011;24008;42.664;23.372;2022-08-19T11:43:24;7.63;;;6.20;;
6135;SDS011;24008;42.664;23.372;2022-08-19T11:45:52;8.07;;;6.40;;
6135;SDS011;24008;42.664;23.372;2022-08-19T11:48:19;10.23;;;6.30;;
6135;SDS011;24008;42.664;23.372;2022-08-19T11:50:47;7.57;;;6.70;;
6135;SDS011;24008;42.664;23.372;2022-08-19T11:53:16;9.40;;;6.72;;
6135;SDS011;24008;42.664;23.372;2022-08-19T11:55:44;9.98;;;7.72;;
6135;SDS011;24008;42.664;23.372;2022-08-19T11:58:11;9.30;;;7.32;;
6135;SDS011;24008;42.664;23.372;2022-08-19T12:00:39;7.63;;;6.72;;
6135;SDS011;24008;42.664;23.372;2022-08-19T12:03:06;7.75;;;6.80;;
6135;SDS011;24008;42.664;23.372;2022-08-19T12:05:36;9.85;;;6.85;;
6135;SDS011;24008;42.664;23.372;2022-08-19T12:08:03;7.50;;;6.78;;
6135;SDS011;24008;42.664;23.372;2022-08-19T12:10:32;7.38;;;6.63;;
6135;SDS011;24008;42.664;23.372;2022-08-19T12:12:59;8.13;;;7.00;;
6135;SDS011;24008;42.664;23.372;2022-08-19T12:15:27;7.40;;;6.50;;
6135;SDS011;24008;42.664;23.372;2022-08-19T12:17:54;8.15;;;6.70;;
6135;SDS011;24008;42.664;23.372;2022-08-19T12:20:22;8.00;;;7.07;;
6135;SDS011;24008;42.664;23.372;2022-08-19T12:22:49;13.90;;;8.63;;
6135;SDS011;24008;42.664;23.372;2022-08-19T12:25:17;8.23;;;6.90;;
6135;SDS011;24008;42.664;23.372;2022-08-19T12:27:45;9.30;;;6.95;;
6135;SDS011;24008;42.664;23.372;2022-08-19T12:30:12;9.77;;;7.38;;
6135;SDS011;24008;42.664;23.372;2022-08-19T12:32:39;11.18;;;7.13;;
6135;SDS011;24008;42.664;23.372;2022-08-19T12:35:07;8.35;;;7.35;;
6135;SDS011;24008;42.664;23.372;2022-08-19T12:37:36;8.73;;;7.32;;
6135;SDS011;24008;42.664;23.372;2022-08-19T12:40:04;11.73;;;6.93;;
6135;SDS011;24008;42.664;23.372;2022-08-19T12:42:32;12.23;;;8.35;;
6135;SDS011;24008;42.664;23.372;2022-08-19T12:45:01;7.43;;;6.75;;
6135;SDS011;24008;42.664;23.372;2022-08-19T12:47:28;10.63;;;7.15;;
6135;SDS011;24008;42.664;23.372;2022-08-19T12:49:55;12.40;;;7.47;;
6135;SDS011;24008;42.664;23.372;2022-08-19T12:52:23;9.45;;;7.38;;
6135;SDS011;24008;42.664;23.372;2022-08-19T12:54:51;9.43;;;6.93;;
6135;SDS011;24008;42.664;23.372;2022-08-19T12:57:19;10.07;;;7.05;;
6135;SDS011;24008;42.664;23.372;2022-08-19T12:59:46;9.63;;;7.22;;
6135;SDS011;24008;42.664;23.372;2022-08-19T13:02:15;9.07;;;7.00;;
6135;SDS011;24008;42.664;23.372;2022-08-19T13:04:42;9.43;;;7.70;;
6135;SDS011;24008;42.664;23.372;2022-08-19T13:07:08;12.48;;;7.30;;
6135;SDS011;24008;42.664;23.372;2022-08-19T13:09:35;9.07;;;7.03;;
6135;SDS011;24008;42.664;23.372;2022-08-19T13:12:02;11.63;;;8.20;;
6135;SDS011;24008;42.664;23.372;2022-08-19T13:14:33;8.88;;;7.78;;
6135;SDS011;24008;42.664;23.372;2022-08-19T13:17:00;10.82;;;7.57;;
6135;SDS011;24008;42.664;23.372;2022-08-19T13:19:29;10.48;;;6.88;;
6135;SDS011;24008;42.664;23.372;2022-08-19T13:21:56;10.73;;;7.10;;
6135;SDS011;24008;42.664;23.372;2022-08-19T13:24:23;13.63;;;7.20;;
6135;SDS011;24008;42.664;23.372;2022-08-19T13:26:50;10.85;;;7.15;;
6135;SDS011;24008;42.664;23.372;2022-08-19T13:29:17;12.38;;;7.85;;
6135;SDS011;24008;42.664;23.372;2022-08-19T13:32:07;15.13;;;8.55;;
6135;SDS011;24008;42.664;23.372;2022-08-19T13:34:52;11.13;;;7.57;;
6135;SDS011;24008;42.664;23.372;2022-08-19T13:37:19;11.13;;;7.88;;
6135;SDS011;24008;42.664;23.372;2022-08-19T13:40:06;10.52;;;7.70;;
6135;SDS011;24008;42.664;23.372;2022-08-19T13:42:39;8.95;;;7.40;;
6135;SDS011;24008;42.664;23.372;2022-08-19T13:45:07;8.18;;;7.35;;
6135;SDS011;24008;42.664;23.372;2022-08-19T13:47:35;9.65;;;7.85;;
6135;SDS011;24008;42.664;23.372;2022-08-19T13:50:09;9.95;;;7.45;;
6135;SDS011;24008;42.664;23.372;2022-08-19T13:52:37;7.90;;;7.10;;
6135;SDS011;24008;42.664;23.372;2022-08-19T13:55:04;9.70;;;7.32;;
6135;SDS011;24008;42.664;23.372;2022-08-19T13:57:32;10.63;;;7.32;;
6135;SDS011;24008;42.664;23.372;2022-08-19T13:59:59;9.50;;;7.68;;
6135;SDS011;24008;42.664;23.372;2022-08-19T14:02:26;10.18;;;7.60;;
6135;SDS011;24008;42.664;23.372;2022-08-19T14:04:53;10.38;;;7.28;;
6135;SDS011;24008;42.664;23.372;2022-08-19T14:07:21;8.40;;;7.47;;
6135;SDS011;24008;42.664;23.372;2022-08-19T14:09:49;11.27;;;7.90;;
6135;SDS011;24008;42.664;23.372;2022-08-19T14:12:18;8.35;;;7.50;;
6135;SDS011;24008;42.664;23.372;2022-08-19T14:14:45;12.20;;;7.93;;
6135;SDS011;24008;42.664;23.372;2022-08-19T14:17:12;12.57;;;7.78;;
6135;SDS011;24008;42.664;23.372;2022-08-19T14:19:39;10.20;;;7.95;;
6135;SDS011;24008;42.664;23.372;2022-08-19T14:22:06;11.13;;;7.70;;
6135;SDS011;24008;42.664;23.372;2022-08-19T14:24:34;8.70;;;7.57;;
6135;SDS011;24008;42.664;23.372;2022-08-19T14:27:03;10.95;;;6.97;;
6135;SDS011;24008;42.664;23.372;2022-08-19T14:29:31;15.38;;;7.93;;
6135;SDS011;24008;42.664;23.372;2022-08-19T14:31:58;11.57;;;7.70;;
6135;SDS011;24008;42.664;23.372;2022-08-19T14:34:25;10.88;;;8.18;;
6135;SDS011;24008;42.664;23.372;2022-08-19T14:36:52;11.27;;;8.00;;
6135;SDS011;24008;42.664;23.372;2022-08-19T14:39:19;15.35;;;7.93;;
6135;SDS011;24008;42.664;23.372;2022-08-19T14:41:47;10.50;;;7.85;;
6135;SDS011;24008;42.664;23.372;2022-08-19T14:44:14;9.02;;;7.80;;